Flight Track Log - Related Links

Times and Time Zones

All times are in EDT time to prevent confusion due to time zone crossing. See the N45EJ flight status page for this flight to view local times or setup timezone preferences in your user account.

Time Position Orientation Groundspeed Altitude Reporting Facility
EDT Latitude Longitude Course Direction KTS MPH feet Rate Location/Type
Fri 03:32:16 PM 41.2672 -95.8839 168° South 193 222 3,900  Level Minneapolis Center
Fri 03:33:17 PM 41.2114 -95.9236 208° Southwest 281 323 7,600 3,738 Climbing Minneapolis Center
Fri 03:34:18 PM 41.1950 -96.0281 258° West 305 351 11,500 2,457 Climbing Minneapolis Center
Fri 03:35:24 PM 41.1839 -96.1700 264° West 349 402 12,800 1,547 Climbing Minneapolis Center
Fri 03:36:26 PM 41.1711 -96.3019 263° West 358 412 14,800 1,561 Climbing Minneapolis Center
Fri 03:37:27 PM 41.1594 -96.4292 263° West 353 406 16,000 1,073 Climbing Minneapolis Center
Fri 03:38:29 PM 41.1475 -96.5592 263° West 353 406 17,000 1,742 Climbing Minneapolis Center
Fri 03:39:31 PM 41.1358 -96.6761 262° West 332 382 19,600 1,452 Climbing Minneapolis Center
Fri 03:40:33 PM 41.1228 -96.8067 262° West 343 395 20,000 194 Climbing Minneapolis Center
Fri 03:41:35 PM 41.1072 -96.9633 263° West 397 457 20,000  Level Minneapolis Center
Fri 03:42:37 PM 41.0925 -97.1225 263° West 421 484 20,000 -339 Level Minneapolis Center
Fri 03:43:39 PM 41.0725 -97.3122 262° West 430 495 19,300 -1,065 Descending Minneapolis Center
Fri 03:44:41 PM 41.0572 -97.4625 262° West 424 488 17,800 -1,645 Descending Minneapolis Center
Fri 03:45:43 PM 41.0433 -97.5958 262° West 390 449 15,900 -1,887 Descending Minneapolis Center
Fri 03:46:45 PM 41.0306 -97.7231 262° West 365 420 13,900 -2,323 Descending Minneapolis Center
Fri 03:47:47 PM 41.0181 -97.8461 262° West 347 399 11,100 -2,806 Descending Minneapolis Center
Fri 03:48:49 PM 41.0056 -97.9631 262° West 334 384 8,100 -3,048 Descending Minneapolis Center
Fri 03:49:51 PM 40.9919 -98.0886 262° West 305 351 4,800 -1,984 Descending Minneapolis Center
Fri 03:50:53 PM 40.9933 -98.1850 271° West 276 318 4,000 -629 Descending Minneapolis Center
Fri 03:51:55 PM 41.0056 -98.2586 282° West 231 266 3,500 -726 Descending Minneapolis Center
Fri 03:52:57 PM 41.0056 -98.3072 270° West 173 199 2,500 -677 Descending Minneapolis Center
Fri 03:53:59 PM 40.9678 -98.3050 177° South 150 173 2,100 -387 Descending Minneapolis Center

Login

Don't have an account? Register now (free) for customized features, flight alerts, and more!